Time;durP1;ratioP1;P1;durP2;ratioP2;P2;SDS_P1;SDS_P2;PMS_P1;PMS_P2;Temp;Humidity;BMP_temperature;BMP_pressure;BME280_temperature;BME280_humidity;BME280_pressure;Samples;Min_cycle;Max_cycle;Signal;HPM_P1;HPM_P2
2022/10/24 00:01:13;;;;;;;21.00;14.05;;;18.50;53.70;;;;;;5054127;28;20165;-39
2022/10/24 00:03:40;;;;;;;16.65;13.55;;;18.50;53.70;;;;;;5054099;28;20150;-40
2022/10/24 00:06:07;;;;;;;16.98;13.10;;;18.50;53.60;;;;;;5053376;28;20595;-40
2022/10/24 00:08:34;;;;;;;17.20;14.20;;;18.40;53.50;;;;;;5053868;28;20259;-40
2022/10/24 00:11:00;;;;;;;14.77;12.80;;;18.40;53.50;;;;;;5053884;28;20181;-39
2022/10/24 00:13:26;;;;;;;15.13;13.50;;;18.40;53.40;;;;;;5053875;28;20739;-39
2022/10/24 00:15:51;;;;;;;19.30;15.03;;;18.30;53.40;;;;;;5053461;28;20462;-40
2022/10/24 00:18:17;;;;;;;17.70;13.73;;;18.30;53.40;;;;;;5053726;28;20185;-40
2022/10/24 00:20:43;;;;;;;16.93;14.60;;;18.40;53.20;;;;;;5053678;28;20223;-40
2022/10/24 00:23:12;;;;;;;18.85;14.00;;;18.30;53.30;;;;;;5053808;28;20166;-40
2022/10/24 00:25:38;;;;;;;16.30;14.63;;;18.30;53.50;;;;;;5052954;28;20189;-41
2022/10/24 00:28:04;;;;;;;17.02;13.52;;;18.30;54.10;;;;;;5053810;28;20177;-40
2022/10/24 00:30:30;;;;;;;18.40;13.87;;;18.30;53.40;;;;;;5053743;28;20567;-40
2022/10/24 00:32:56;;;;;;;20.33;14.27;;;18.30;53.40;;;;;;5053476;28;20165;-41
2022/10/24 00:35:21;;;;;;;20.77;12.87;;;18.30;53.50;;;;;;5053256;28;20400;-40
2022/10/24 00:37:47;;;;;;;16.43;13.43;;;18.20;53.50;;;;;;5052936;28;20150;-41
2022/10/24 00:40:17;;;;;;;14.73;12.90;;;18.20;53.50;;;;;;5053227;28;20548;-40
2022/10/24 00:42:43;;;;;;;17.27;14.40;;;18.20;53.50;;;;;;5053367;28;20164;-41
2022/10/24 00:45:36;;;;;;;17.50;13.55;;;18.20;53.60;;;;;;5053559;28;20243;-40
2022/10/24 00:48:08;;;;;;;15.90;13.13;;;18.30;53.40;;;;;;5054958;28;20169;-40
2022/10/24 00:50:34;;;;;;;15.90;12.30;;;18.30;53.40;;;;;;5053892;28;20162;-40
2022/10/24 00:52:59;;;;;;;16.33;12.90;;;18.30;53.30;;;;;;5053824;28;20176;-40
2022/10/24 00:55:25;;;;;;;16.03;11.40;;;18.30;53.40;;;;;;5053950;28;20209;-40
2022/10/24 00:57:53;;;;;;;14.07;12.57;;;18.20;53.30;;;;;;5053263;28;20246;-40
2022/10/24 01:00:29;;;;;;;15.77;13.52;;;18.20;53.20;;;;;;5053169;28;20189;-39
2022/10/24 01:02:55;;;;;;;18.20;12.93;;;18.20;53.30;;;;;;5053167;28;20176;-40
2022/10/24 01:05:25;;;;;;;15.75;13.13;;;18.20;53.30;;;;;;5052802;28;20169;-40
2022/10/24 01:08:00;;;;;;;16.35;12.02;;;18.30;53.30;;;;;;5052150;28;20235;-40
2022/10/24 01:10:39;;;;;;;16.67;12.55;;;18.30;53.00;;;;;;5052830;28;20655;-40
2022/10/24 01:13:23;;;;;;;14.60;12.20;;;18.30;53.00;;;;;;5052783;28;20549;-40
2022/10/24 01:16:12;;;;;;;14.95;11.02;;;18.30;53.00;;;;;;5051971;28;20211;-40
2022/10/24 01:18:52;;;;;;;17.30;13.32;;;18.30;53.00;;;;;;5052595;28;20190;-40
2022/10/24 01:21:57;;;;;;;18.67;13.00;;;18.30;53.10;;;;;;5052734;28;20158;-40
2022/10/24 01:24:41;;;;;;;14.45;11.20;;;18.30;53.00;;;;;;5038052;28;20641;-39
2022/10/24 01:27:43;;;;;;;14.70;11.23;;;18.30;53.00;;;;;;5051952;28;20591;-40
2022/10/24 01:30:11;;;;;;;15.15;11.52;;;18.30;53.00;;;;;;5053424;28;20279;-41
2022/10/24 01:33:06;;;;;;;14.10;12.38;;;18.20;53.00;;;;;;5053055;28;20176;-39
2022/10/24 01:35:39;;;;;;;15.13;11.13;;;18.30;53.00;;;;;;5050259;28;20201;-40
2022/10/24 01:38:53;;;;;;;14.60;11.98;;;18.20;53.10;;;;;;5053280;28;20165;-40
2022/10/24 01:41:22;;;;;;;18.35;12.52;;;18.30;52.90;;;;;;5052605;28;20180;-40
2022/10/24 01:44:01;;;;;;;12.88;10.25;;;18.20;52.90;;;;;;5052224;28;20560;-40
2022/10/24 01:46:31;;;;;;;16.58;12.55;;;18.30;52.90;;;;;;5051800;28;20197;-39
2022/10/24 01:49:03;;;;;;;17.52;11.85;;;18.30;52.90;;;;;;5052101;28;20180;-41
2022/10/24 01:51:32;;;;;;;15.52;11.60;;;18.30;52.80;;;;;;5052329;28;20178;-40
2022/10/24 01:53:59;;;;;;;15.95;11.80;;;18.30;52.60;;;;;;5052096;28;20170;-40
2022/10/24 01:56:25;;;;;;;14.48;11.27;;;18.40;52.50;;;;;;5051365;28;20189;-41
2022/10/24 01:58:51;;;;;;;13.20;11.20;;;18.30;52.60;;;;;;5051984;28;20203;-41
2022/10/24 02:01:22;;;;;;;15.73;12.13;;;18.30;52.60;;;;;;5052094;28;20169;-41
2022/10/24 02:03:57;;;;;;;15.48;11.20;;;18.30;52.50;;;;;;5052062;28;20153;-40
2022/10/24 02:06:35;;;;;;;14.50;12.02;;;18.30;52.40;;;;;;5050735;28;20200;-40
2022/10/24 02:09:10;;;;;;;17.48;12.00;;;18.30;52.30;;;;;;5052010;28;20168;-41
2022/10/24 02:11:37;;;;;;;13.23;10.40;;;18.30;52.40;;;;;;5051929;28;20637;-40
2022/10/24 02:14:12;;;;;;;15.38;12.38;;;18.30;52.30;;;;;;5051876;28;20645;-40
2022/10/24 02:16:39;;;;;;;18.08;13.65;;;18.30;52.50;;;;;;5051216;28;20209;-40
2022/10/24 02:19:05;;;;;;;17.10;12.82;;;18.20;52.30;;;;;;5051841;28;20692;-40
2022/10/24 02:21:48;;;;;;;18.00;12.40;;;18.20;52.30;;;;;;5051802;28;20185;-40
2022/10/24 02:24:22;;;;;;;18.60;11.52;;;18.20;52.40;;;;;;5051875;28;20867;-41
2022/10/24 02:26:54;;;;;;;16.42;11.80;;;18.20;52.30;;;;;;5051190;28;20268;-40
2022/10/24 02:29:50;;;;;;;17.25;12.68;;;18.20;52.40;;;;;;5051965;28;20224;-40
2022/10/24 02:32:25;;;;;;;16.70;13.18;;;18.20;52.30;;;;;;5051746;28;20182;-41
2022/10/24 02:34:52;;;;;;;14.45;12.10;;;18.20;52.20;;;;;;5051977;28;20173;-40
2022/10/24 02:37:18;;;;;;;18.60;11.95;;;18.20;52.20;;;;;;5051019;28;20197;-41
2022/10/24 02:39:46;;;;;;;14.82;13.32;;;18.10;52.20;;;;;;5051535;28;20648;-41
2022/10/24 02:42:13;;;;;;;16.02;12.48;;;18.10;52.20;;;;;;5051642;28;20244;-40
2022/10/24 02:44:41;;;;;;;14.48;11.57;;;18.10;52.20;;;;;;5051593;28;20181;-40
2022/10/24 02:47:11;;;;;;;16.67;11.65;;;18.10;52.10;;;;;;5050989;28;20527;-40
2022/10/24 02:49:37;;;;;;;15.20;11.52;;;18.10;52.10;;;;;;5051653;28;20647;-40
2022/10/24 02:52:04;;;;;;;11.40;10.20;;;18.00;52.00;;;;;;5051537;28;20177;-40
2022/10/24 02:54:29;;;;;;;19.42;13.63;;;18.10;52.10;;;;;;5051593;28;20415;-40
2022/10/24 02:56:59;;;;;;;15.97;12.23;;;18.00;52.10;;;;;;5050935;28;20280;-41
2022/10/24 02:59:24;;;;;;;13.07;10.82;;;18.00;52.20;;;;;;5051271;28;20189;-40
2022/10/24 03:01:50;;;;;;;13.90;10.87;;;18.00;52.30;;;;;;5051693;28;20181;-40
2022/10/24 03:04:16;;;;;;;15.50;11.80;;;18.00;52.40;;;;;;5051450;28;20625;-40
2022/10/24 03:06:42;;;;;;;19.47;12.73;;;18.00;52.40;;;;;;5050784;28;20548;-40
2022/10/24 03:09:10;;;;;;;15.20;12.00;;;18.00;52.60;;;;;;5051405;28;20169;-40
2022/10/24 03:11:36;;;;;;;15.27;12.05;;;18.10;52.70;;;;;;5051664;28;20790;-41
2022/10/24 03:14:02;;;;;;;17.60;12.53;;;18.10;52.60;;;;;;5051331;28;20189;-40
2022/10/24 03:16:27;;;;;;;15.23;11.87;;;18.10;52.50;;;;;;5050651;28;20221;-40
2022/10/24 03:18:54;;;;;;;16.00;13.03;;;18.20;52.40;;;;;;5054420;28;20197;-40
2022/10/24 03:21:20;;;;;;;17.92;11.63;;;18.20;52.40;;;;;;5054894;28;20234;-40
2022/10/24 03:23:46;;;;;;;16.15;12.73;;;18.20;52.40;;;;;;5054828;28;20645;-40
2022/10/24 03:26:12;;;;;;;18.60;13.83;;;18.20;52.30;;;;;;5054157;28;20204;-40
2022/10/24 03:28:38;;;;;;;16.58;11.35;;;18.30;52.30;;;;;;5054761;28;20173;-40
2022/10/24 03:31:04;;;;;;;16.50;11.97;;;18.30;52.20;;;;;;5054617;28;20711;-43
2022/10/24 03:33:30;;;;;;;17.25;12.48;;;18.30;52.20;;;;;;5054813;28;20185;-43
2022/10/24 03:35:56;;;;;;;13.50;10.77;;;18.30;52.10;;;;;;5053858;28;20235;-43
2022/10/24 03:38:23;;;;;;;16.93;13.47;;;18.30;52.10;;;;;;5054525;28;20165;-43
2022/10/24 03:40:50;;;;;;;20.98;14.15;;;18.30;52.10;;;;;;5054454;28;20170;-43
2022/10/24 03:43:16;;;;;;;17.95;12.73;;;18.30;51.90;;;;;;5054460;28;20218;-42
2022/10/24 03:45:42;;;;;;;19.77;12.68;;;18.30;51.90;;;;;;5053553;28;20193;-41
2022/10/24 03:48:08;;;;;;;18.38;13.57;;;18.30;51.90;;;;;;5054419;28;20248;-41
2022/10/24 03:50:34;;;;;;;20.15;13.65;;;18.20;51.70;;;;;;5036933;28;20518;-39
2022/10/24 03:53:00;;;;;;;17.13;14.10;;;18.20;51.70;;;;;;5054272;28;20638;-40
2022/10/24 03:55:27;;;;;;;21.95;14.25;;;18.20;51.60;;;;;;5054093;28;20189;-41
2022/10/24 03:57:53;;;;;;;17.75;12.13;;;18.10;51.70;;;;;;5053718;28;20184;-40
2022/10/24 04:00:18;;;;;;;19.30;14.70;;;18.00;51.70;;;;;;5053996;28;20281;-40
2022/10/24 04:02:45;;;;;;;21.27;14.10;;;18.00;51.90;;;;;;5054042;28;20169;-40
2022/10/24 04:05:11;;;;;;;17.52;14.13;;;18.00;51.80;;;;;;5054232;28;20407;-39
2022/10/24 04:07:37;;;;;;;19.10;14.38;;;18.00;51.80;;;;;;5053499;28;20180;-39
2022/10/24 04:10:05;;;;;;;20.20;14.10;;;18.00;51.90;;;;;;5053950;28;20173;-40
2022/10/24 04:12:31;;;;;;;19.63;12.77;;;18.00;51.80;;;;;;5053828;28;20173;-40
2022/10/24 04:14:56;;;;;;;19.07;13.03;;;17.90;51.80;;;;;;5053862;28;20219;-39
2022/10/24 04:17:22;;;;;;;21.90;13.80;;;17.90;51.80;;;;;;5053265;28;20461;-41
2022/10/24 04:19:48;;;;;;;17.57;14.50;;;17.90;51.70;;;;;;5053698;28;20251;-40
2022/10/24 04:22:13;;;;;;;16.30;13.30;;;17.90;51.60;;;;;;5053839;28;20169;-39
2022/10/24 04:24:39;;;;;;;17.43;13.50;;;17.90;51.70;;;;;;5053799;28;20166;-40
2022/10/24 04:27:08;;;;;;;17.17;13.33;;;17.80;51.50;;;;;;5052954;28;20268;-40
2022/10/24 04:29:34;;;;;;;17.17;12.88;;;17.80;51.50;;;;;;5052656;28;20218;-40
2022/10/24 04:32:00;;;;;;;17.50;12.55;;;17.80;51.50;;;;;;5053491;28;20181;-41
2022/10/24 04:34:26;;;;;;;16.40;12.70;;;17.70;51.40;;;;;;5053490;28;20178;-40
2022/10/24 04:36:52;;;;;;;19.07;11.87;;;17.70;51.50;;;;;;5052733;28;20461;-40
2022/10/24 04:39:18;;;;;;;18.30;14.07;;;17.70;51.50;;;;;;5053350;28;20189;-41
2022/10/24 04:41:44;;;;;;;15.88;12.45;;;17.60;51.50;;;;;;5053299;28;20173;-40
2022/10/24 04:44:10;;;;;;;15.15;11.60;;;17.60;51.70;;;;;;5053264;28;20173;-40
2022/10/24 04:46:36;;;;;;;18.70;12.40;;;17.60;51.80;;;;;;5052654;28;20189;-41
2022/10/24 04:49:03;;;;;;;16.42;11.98;;;17.50;52.40;;;;;;5053240;28;20818;-41
2022/10/24 04:51:28;;;;;;;16.80;13.13;;;17.50;52.30;;;;;;5053602;28;20184;-41
2022/10/24 04:53:54;;;;;;;17.33;12.63;;;17.50;52.30;;;;;;5053363;28;20198;-42
2022/10/24 04:56:20;;;;;;;14.83;10.93;;;17.50;52.30;;;;;;5052314;28;20246;-41
2022/10/24 04:58:46;;;;;;;14.77;12.13;;;17.50;52.30;;;;;;5053080;28;20280;-41
2022/10/24 05:01:12;;;;;;;11.48;10.10;;;17.50;52.20;;;;;;5052941;28;20175;-41
2022/10/24 05:03:38;;;;;;;16.10;11.80;;;17.50;52.00;;;;;;5053031;28;20169;-42
2022/10/24 05:06:04;;;;;;;16.77;13.97;;;17.50;52.00;;;;;;5052227;28;20990;-41
2022/10/24 05:08:29;;;;;;;16.30;12.63;;;17.50;52.10;;;;;;5052991;28;20181;-40
2022/10/24 05:10:55;;;;;;;19.60;10.43;;;17.50;52.00;;;;;;5052817;28;20177;-41
2022/10/24 05:13:21;;;;;;;26.90;13.40;;;17.50;52.00;;;;;;5052728;28;20166;-41
2022/10/24 05:15:47;;;;;;;17.37;11.80;;;17.50;52.10;;;;;;5052080;28;20192;-41
2022/10/24 05:18:12;;;;;;;15.10;10.90;;;17.50;52.10;;;;;;5052563;28;20171;-41
2022/10/24 05:20:38;;;;;;;13.50;10.40;;;17.50;52.00;;;;;;5052561;28;20181;-41
2022/10/24 05:23:04;;;;;;;14.13;10.40;;;17.60;52.10;;;;;;5052566;28;20248;-41
2022/10/24 05:25:30;;;;;;;15.23;11.20;;;17.50;51.90;;;;;;5052089;28;20668;-41
2022/10/24 05:27:55;;;;;;;13.90;10.87;;;17.50;51.90;;;;;;5052246;28;20169;-41
2022/10/24 05:30:21;;;;;;;16.80;10.83;;;17.50;51.90;;;;;;5052547;28;20477;-41
2022/10/24 05:32:47;;;;;;;18.77;13.05;;;17.50;52.00;;;;;;5052448;28;20567;-41
2022/10/24 05:35:13;;;;;;;13.70;8.60;;;17.50;52.10;;;;;;5052829;28;20645;-41
2022/10/24 05:37:39;;;;;;;14.23;8.30;;;17.50;52.30;;;;;;5051747;28;20175;-41
2022/10/24 05:40:07;;;;;;;13.45;8.55;;;17.50;52.20;;;;;;5052078;28;20973;-41
2022/10/24 05:42:33;;;;;;;12.82;9.70;;;17.50;52.20;;;;;;5052158;28;20180;-41
2022/10/24 05:44:59;;;;;;;13.50;8.90;;;17.50;52.10;;;;;;5052189;28;20641;-41
2022/10/24 05:47:24;;;;;;;16.37;8.83;;;17.50;52.30;;;;;;5051504;28;20209;-41
2022/10/24 05:49:50;;;;;;;18.30;8.83;;;17.50;52.30;;;;;;5052337;28;20180;-41
2022/10/24 05:52:16;;;;;;;9.60;7.73;;;17.50;52.30;;;;;;5052062;28;20201;-41
2022/10/24 05:54:42;;;;;;;8.90;7.40;;;17.50;52.30;;;;;;5052233;28;20415;-41
2022/10/24 05:57:07;;;;;;;10.57;8.03;;;18.30;52.60;;;;;;5051605;28;20192;-41
2022/10/24 05:59:33;;;;;;;15.13;10.30;;;17.50;52.20;;;;;;5052276;28;20584;-41
2022/10/24 06:01:59;;;;;;;11.47;7.77;;;17.50;52.30;;;;;;5051917;28;20530;-41
2022/10/24 06:04:25;;;;;;;13.50;8.90;;;16.50;52.00;;;;;;5052029;28;20196;-41
2022/10/24 06:06:50;;;;;;;10.80;8.17;;;17.50;52.40;;;;;;5051389;28;20193;-41
2022/10/24 06:09:16;;;;;;;14.30;6.97;;;17.50;52.30;;;;;;5051709;28;20177;-41
2022/10/24 06:11:42;;;;;;;13.07;8.20;;;17.50;52.60;;;;;;5051952;28;20675;-41
2022/10/24 06:14:08;;;;;;;14.03;8.37;;;17.60;52.70;;;;;;5052077;28;20181;-41
2022/10/24 06:16:34;;;;;;;11.37;8.60;;;17.60;52.60;;;;;;5051724;28;20442;-41
2022/10/24 06:19:00;;;;;;;12.70;9.95;;;17.60;52.60;;;;;;5052641;28;20568;-40
2022/10/24 06:21:26;;;;;;;14.67;10.33;;;17.70;52.80;;;;;;5052746;28;20204;-41
2022/10/24 06:23:51;;;;;;;12.73;8.67;;;17.70;52.70;;;;;;5052736;28;20953;-42
2022/10/24 06:26:18;;;;;;;13.33;8.60;;;17.80;52.80;;;;;;5051152;28;20193;-41
2022/10/24 06:28:44;;;;;;;16.00;8.77;;;17.80;52.80;;;;;;5033814;28;20202;-41
2022/10/24 06:31:11;;;;;;;12.20;9.13;;;17.80;52.80;;;;;;5051867;28;20177;-41
2022/10/24 06:33:38;;;;;;;34.30;10.85;;;18.00;52.90;;;;;;5051860;28;20205;-41
2022/10/24 06:36:08;;;;;;;19.95;9.73;;;18.10;52.80;;;;;;5050939;28;20599;-41
2022/10/24 06:38:34;;;;;;;12.20;8.32;;;18.30;52.80;;;;;;5051463;28;20194;-41
2022/10/24 06:41:09;;;;;;;9.48;8.23;;;18.40;52.40;;;;;;5051578;28;20197;-41
2022/10/24 06:43:36;;;;;;;13.43;9.18;;;18.50;52.00;;;;;;5051625;28;20157;-41
2022/10/24 06:46:06;;;;;;;19.80;8.60;;;18.50;51.80;;;;;;5033000;28;20204;-41
2022/10/24 06:48:34;;;;;;;20.52;10.63;;;18.50;51.70;;;;;;5051519;28;20641;-41
2022/10/24 06:51:00;;;;;;;12.10;8.27;;;18.50;51.90;;;;;;5051532;28;20179;-41
2022/10/24 06:53:26;;;;;;;19.27;9.07;;;18.50;51.90;;;;;;5054623;28;20183;-41
2022/10/24 06:55:51;;;;;;;17.50;8.23;;;18.60;52.00;;;;;;5054883;28;20658;-41
2022/10/24 06:58:17;;;;;;;17.53;10.80;;;18.70;52.00;;;;;;5055215;28;20169;-41
2022/10/24 07:00:43;;;;;;;17.80;7.90;;;18.80;51.90;;;;;;5055394;28;20252;-41
2022/10/24 07:03:14;;;;;;;15.33;9.17;;;18.90;51.80;;;;;;5055245;28;20183;-41
2022/10/24 07:05:40;;;;;;;12.55;7.47;;;19.00;51.40;;;;;;5054429;28;20230;-41
2022/10/24 07:08:06;;;;;;;11.83;6.90;;;19.10;51.40;;;;;;5055006;28;20649;-41
2022/10/24 07:10:31;;;;;;;11.43;7.30;;;19.20;51.10;;;;;;5055002;28;20231;-41
2022/10/24 07:12:57;;;;;;;10.43;6.97;;;19.30;51.00;;;;;;5054904;28;20402;-41
2022/10/24 07:15:23;;;;;;;9.73;6.90;;;19.30;50.90;;;;;;5054740;28;20174;-41
2022/10/24 07:17:49;;;;;;;11.50;8.17;;;19.40;50.80;;;;;;5054419;28;20176;-42
2022/10/24 07:20:15;;;;;;;11.00;7.73;;;19.50;50.90;;;;;;5054701;28;20441;-41
2022/10/24 07:22:41;;;;;;;11.60;7.32;;;19.60;50.80;;;;;;5055019;28;20260;-41
2022/10/24 07:25:07;;;;;;;13.73;6.63;;;19.90;50.90;;;;;;5054668;28;20196;-41
2022/10/24 07:27:33;;;;;;;12.10;7.20;;;20.30;50.00;;;;;;5054092;28;20174;-42
2022/10/24 07:29:59;;;;;;;19.10;7.57;;;20.70;49.50;;;;;;5054689;28;20223;-41
2022/10/24 07:32:25;;;;;;;15.88;7.40;;;20.70;48.40;;;;;;5054651;28;20196;-41
2022/10/24 07:34:51;;;;;;;11.50;7.00;;;20.70;48.40;;;;;;5054600;28;20629;-41
2022/10/24 07:37:17;;;;;;;12.30;7.00;;;20.80;48.40;;;;;;5054236;28;20236;-41
2022/10/24 07:39:45;;;;;;;13.20;7.15;;;20.80;48.60;;;;;;5054470;28;20201;-41
2022/10/24 07:42:12;;;;;;;9.63;7.30;;;20.80;48.20;;;;;;5054303;28;20665;-41
2022/10/24 07:44:38;;;;;;;12.75;6.97;;;20.60;47.90;;;;;;5054421;28;20564;-41
2022/10/24 07:47:06;;;;;;;9.40;6.43;;;20.60;48.30;;;;;;5053924;28;20193;-41
2022/10/24 07:49:35;;;;;;;17.42;7.63;;;20.60;48.50;;;;;;5054351;28;20254;-41
2022/10/24 07:52:01;;;;;;;11.25;7.22;;;20.70;48.30;;;;;;5054795;28;20173;-41
2022/10/24 07:54:27;;;;;;;11.43;7.50;;;20.80;48.60;;;;;;5054295;28;20625;-41
2022/10/24 07:56:53;;;;;;;32.07;11.40;;;21.00;48.60;;;;;;5053537;28;20238;-41
2022/10/24 07:59:19;;;;;;;9.45;6.90;;;21.10;48.40;;;;;;5054482;28;20450;-42
2022/10/24 08:01:45;;;;;;;8.10;6.60;;;21.30;47.30;;;;;;5054073;28;20165;-41
2022/10/24 08:04:11;;;;;;;10.07;7.10;;;21.60;47.00;;;;;;5053093;28;20173;-42
2022/10/24 08:06:37;;;;;;;11.93;7.10;;;21.80;47.40;;;;;;5053237;28;20182;-41
2022/10/24 08:09:03;;;;;;;8.70;6.43;;;21.90;46.20;;;;;;5053908;28;20400;-42
2022/10/24 08:11:31;;;;;;;12.43;7.53;;;21.90;45.90;;;;;;5053881;28;20176;-42
2022/10/24 08:13:57;;;;;;;13.02;7.43;;;21.80;45.40;;;;;;5053955;28;20181;-41
2022/10/24 08:16:24;;;;;;;9.73;6.40;;;21.80;46.10;;;;;;5053152;28;20193;-41
2022/10/24 08:18:51;;;;;;;9.37;5.87;;;21.70;46.30;;;;;;5053748;28;20455;-41
2022/10/24 08:21:19;;;;;;;10.15;5.97;;;21.60;46.20;;;;;;5054169;28;20408;-41
2022/10/24 08:23:48;;;;;;;9.73;6.70;;;21.50;46.30;;;;;;5054023;28;20193;-42
2022/10/24 08:26:16;;;;;;;14.20;7.33;;;21.40;46.50;;;;;;5052996;28;20285;-41
2022/10/24 08:28:44;;;;;;;13.95;7.25;;;21.40;46.80;;;;;;5053462;28;20450;-42
2022/10/24 08:31:12;;;;;;;7.47;6.27;;;21.30;47.10;;;;;;5053871;28;20177;-42
2022/10/24 08:33:38;;;;;;;11.27;7.30;;;21.20;47.00;;;;;;5053828;28;20411;-42
2022/10/24 08:36:12;;;;;;;13.23;7.03;;;21.20;47.30;;;;;;5052608;28;20455;-41
2022/10/24 08:38:38;;;;;;;9.07;7.43;;;21.20;47.50;;;;;;5053566;28;20497;-41
2022/10/24 08:41:05;;;;;;;8.90;6.53;;;21.20;47.70;;;;;;5053442;28;20474;-41
2022/10/24 08:43:31;;;;;;;8.38;7.47;;;21.20;48.00;;;;;;5053113;28;20649;-41
2022/10/24 08:46:19;;;;;;;15.10;7.73;;;21.20;47.70;;;;;;5052538;28;20196;-42
2022/10/24 08:48:57;;;;;;;8.07;6.73;;;21.20;47.40;;;;;;5053162;28;20484;-41
2022/10/24 08:51:57;;;;;;;13.87;7.60;;;21.20;47.80;;;;;;5053128;28;20438;-41
2022/10/24 08:54:33;;;;;;;10.10;7.20;;;21.10;47.80;;;;;;5053075;28;20388;-41
2022/10/24 08:57:00;;;;;;;12.13;6.60;;;21.10;48.00;;;;;;5052635;28;20423;-44
2022/10/24 08:59:29;;;;;;;7.70;6.90;;;21.10;48.20;;;;;;5052876;28;20446;-42
2022/10/24 09:01:59;;;;;;;18.40;7.15;;;21.10;48.20;;;;;;5052903;28;20453;-42
2022/10/24 09:04:30;;;;;;;8.70;7.30;;;21.20;48.30;;;;;;5052707;28;20169;-42
2022/10/24 09:06:56;;;;;;;13.70;7.72;;;21.30;48.10;;;;;;5052234;28;20427;-42
2022/10/24 09:09:38;;;;;;;9.07;7.50;;;21.30;48.30;;;;;;5052764;28;20671;-43
2022/10/24 09:12:19;;;;;;;12.88;7.00;;;21.40;48.30;;;;;;5052797;28;20574;-42
2022/10/24 09:14:50;;;;;;;14.53;6.17;;;21.40;48.10;;;;;;5052334;28;20234;-42
2022/10/24 09:17:34;;;;;;;7.30;6.00;;;21.50;48.20;;;;;;5051943;28;20431;-42
2022/10/24 09:20:20;;;;;;;8.07;5.93;;;21.60;48.10;;;;;;5052561;28;20280;-43
2022/10/24 09:22:46;;;;;;;10.65;6.00;;;21.60;48.10;;;;;;5052559;28;20167;-42
2022/10/24 09:25:16;;;;;;;8.20;6.37;;;21.60;48.10;;;;;;5052716;28;20177;-42
2022/10/24 09:27:42;;;;;;;11.07;6.38;;;21.60;47.80;;;;;;5051950;28;20764;-42
2022/10/24 09:30:20;;;;;;;9.65;6.68;;;21.70;48.00;;;;;;5052470;28;20637;-42
2022/10/24 09:32:47;;;;;;;7.90;6.23;;;21.70;48.20;;;;;;5052409;28;20184;-42
2022/10/24 09:35:19;;;;;;;12.03;6.03;;;21.70;48.00;;;;;;5052225;28;20412;-42
2022/10/24 09:37:49;;;;;;;5.97;4.90;;;21.70;47.90;;;;;;5051643;28;20408;-42
2022/10/24 09:40:18;;;;;;;10.30;6.10;;;21.70;47.80;;;;;;5052499;28;20450;-42
2022/10/24 09:42:51;;;;;;;11.63;6.10;;;21.80;47.90;;;;;;5052647;28;20408;-42
2022/10/24 09:45:19;;;;;;;10.00;6.80;;;21.80;47.80;;;;;;5052157;28;20419;-43
2022/10/24 09:47:45;;;;;;;10.33;6.40;;;21.80;48.00;;;;;;5051701;28;20416;-42
2022/10/24 09:50:21;;;;;;;7.80;6.00;;;21.80;48.00;;;;;;5051984;28;20974;-42
2022/10/24 09:52:50;;;;;;;8.43;6.20;;;21.90;47.90;;;;;;5052150;28;20412;-42
2022/10/24 09:55:23;;;;;;;9.70;7.43;;;21.90;47.60;;;;;;5051975;28;20408;-42
2022/10/24 09:57:55;;;;;;;11.63;6.40;;;22.00;47.40;;;;;;5051501;28;20765;-42
2022/10/24 10:00:30;;;;;;;8.07;5.97;;;22.10;47.60;;;;;;5052022;28;20517;-42
2022/10/24 10:03:25;;;;;;;7.30;5.73;;;22.20;47.70;;;;;;5052261;28;20399;-42
2022/10/24 10:06:13;;;;;;;9.00;5.53;;;22.40;47.70;;;;;;5030359;28;20440;-42
2022/10/24 10:08:38;;;;;;;9.30;6.00;;;22.50;46.30;;;;;;5051941;28;20403;-42
2022/10/24 10:11:04;;;;;;;10.60;6.27;;;22.60;46.90;;;;;;5051864;28;20419;-42
2022/10/24 10:13:37;;;;;;;8.50;6.20;;;22.70;46.40;;;;;;5051878;28;20414;-42
2022/10/24 10:16:06;;;;;;;10.70;6.33;;;22.80;46.10;;;;;;5051364;28;20205;-42
2022/10/24 10:19:04;;;;;;;9.33;6.30;;;22.80;46.40;;;;;;5051739;28;20415;-42
2022/10/24 10:21:53;;;;;;;9.20;6.23;;;22.80;45.80;;;;;;5050986;28;20487;-42
2022/10/24 10:24:43;;;;;;;13.50;6.47;;;22.80;45.80;;;;;;5051810;28;20407;-42
2022/10/24 10:27:30;;;;;;;9.43;6.00;;;22.80;46.30;;;;;;5051690;28;20420;-42
2022/10/24 10:30:15;;;;;;;7.73;5.97;;;22.80;45.60;;;;;;5055628;28;20891;-43
2022/10/24 10:32:59;;;;;;;7.93;5.60;;;22.80;46.10;;;;;;5055827;28;20502;-42
2022/10/24 10:36:02;;;;;;;10.50;6.50;;;22.70;46.30;;;;;;5055345;28;20490;-42
2022/10/24 10:38:34;;;;;;;7.40;5.20;;;22.80;46.40;;;;;;5055681;28;20399;-42
2022/10/24 10:41:07;;;;;;;11.70;6.20;;;22.70;46.50;;;;;;5055668;28;20423;-42
2022/10/24 10:44:19;;;;;;;9.10;4.77;;;22.80;46.20;;;;;;5055760;28;20392;-42
2022/10/24 10:47:00;;;;;;;8.47;5.97;;;22.80;46.40;;;;;;5055229;28;20424;-42
2022/10/24 10:49:38;;;;;;;5.93;5.00;;;22.80;46.70;;;;;;5055472;28;20451;-42
2022/10/24 10:52:30;;;;;;;8.37;5.83;;;22.80;46.40;;;;;;5055780;28;20387;-42
2022/10/24 10:55:20;;;;;;;11.67;5.33;;;22.80;46.50;;;;;;5055776;28;20419;-42
2022/10/24 10:58:04;;;;;;;9.23;6.10;;;22.80;46.70;;;;;;5055382;28;20479;-42
2022/10/24 11:00:40;;;;;;;9.23;6.57;;;22.80;47.10;;;;;;5055713;28;20489;-42
2022/10/24 11:03:24;;;;;;;9.87;6.43;;;22.90;47.40;;;;;;5055626;28;20406;-42
2022/10/24 11:06:16;;;;;;;12.50;5.37;;;22.80;47.30;;;;;;5054611;28;20435;-42
2022/10/24 11:09:05;;;;;;;9.27;5.90;;;22.80;47.00;;;;;;5055893;28;20412;-42
2022/10/24 11:11:37;;;;;;;15.90;6.07;;;22.80;46.50;;;;;;5055214;28;20514;-42
2022/10/24 11:14:20;;;;;;;11.00;5.60;;;22.70;46.50;;;;;;5055710;28;20414;-42
2022/10/24 11:16:49;;;;;;;10.53;4.47;;;22.70;46.60;;;;;;5054850;28;20423;-42
2022/10/24 11:19:47;;;;;;;6.60;5.27;;;22.70;46.60;;;;;;5059074;28;20835;-42
2022/10/24 11:22:19;;;;;;;9.33;4.70;;;22.70;46.80;;;;;;5057468;28;20432;-42
2022/10/24 11:24:53;;;;;;;7.23;4.93;;;22.70;46.00;;;;;;5054914;28;20392;-42
2022/10/24 11:27:30;;;;;;;6.30;4.07;;;22.70;45.70;;;;;;5054296;28;20506;-43
2022/10/24 11:30:25;;;;;;;8.90;3.63;;;22.70;45.80;;;;;;5054846;28;20888;-42
2022/10/24 11:33:01;;;;;;;11.83;5.70;;;22.70;46.00;;;;;;5054178;28;20908;-42
2022/10/24 11:35:33;;;;;;;8.50;4.03;;;22.80;46.20;;;;;;5054584;28;20395;-42
2022/10/24 11:38:08;;;;;;;8.07;5.20;;;22.70;46.40;;;;;;5054447;28;20466;-42
2022/10/24 11:40:34;;;;;;;8.73;5.20;;;22.80;46.40;;;;;;5054522;28;20463;-42
2022/10/24 11:43:26;;;;;;;16.17;4.93;;;22.70;46.60;;;;;;5054568;28;20410;-42
2022/10/24 11:45:59;;;;;;;10.70;5.20;;;22.80;46.40;;;;;;5054116;28;20502;-42
2022/10/24 11:48:39;;;;;;;7.10;4.77;;;22.70;46.60;;;;;;5054340;28;20408;-42
2022/10/24 11:51:20;;;;;;;8.90;4.40;;;22.70;46.90;;;;;;5054197;28;20461;-42
2022/10/24 11:53:48;;;;;;;4.00;3.37;;;22.60;47.10;;;;;;5054351;28;20427;-42
2022/10/24 11:56:23;;;;;;;7.87;4.20;;;22.60;47.30;;;;;;5053766;28;20451;-42
2022/10/24 11:59:03;;;;;;;7.17;3.80;;;22.60;47.50;;;;;;5054188;28;20514;-42
2022/10/24 12:01:41;;;;;;;7.27;4.00;;;22.50;47.60;;;;;;5054081;28;20483;-42
2022/10/24 12:04:29;;;;;;;6.83;3.80;;;22.50;47.60;;;;;;5054221;28;20519;-42
2022/10/24 12:07:15;;;;;;;7.50;3.60;;;22.40;47.20;;;;;;5053404;28;20423;-42
2022/10/24 12:09:52;;;;;;;5.90;3.93;;;22.40;47.20;;;;;;5003362;28;20907;-42
2022/10/24 12:12:49;;;;;;;7.43;4.50;;;22.40;47.40;;;;;;5053815;28;20962;-42
2022/10/24 12:15:30;;;;;;;7.70;3.90;;;22.40;48.40;;;;;;4965506;28;20431;-42
2022/10/24 12:17:59;;;;;;;5.43;4.40;;;22.40;47.70;;;;;;5053913;28;20476;-42
2022/10/24 12:20:26;;;;;;;8.87;4.70;;;22.40;47.80;;;;;;5053916;28;20462;-42
2022/10/24 12:22:53;;;;;;;12.20;7.30;;;22.40;47.70;;;;;;5054025;28;20411;-42
2022/10/24 12:25:34;;;;;;;7.80;5.50;;;22.40;47.50;;;;;;5053799;28;20404;-42
2022/10/24 12:28:07;;;;;;;11.70;4.10;;;22.40;46.90;;;;;;5053740;28;20404;-42
2022/10/24 12:30:35;;;;;;;7.13;3.27;;;22.40;46.50;;;;;;5053756;28;20420;-42
2022/10/24 12:33:25;;;;;;;7.10;2.90;;;22.50;45.90;;;;;;5053686;28;20899;-42
2022/10/24 12:35:55;;;;;;;5.53;3.43;;;22.50;45.50;;;;;;5052863;28;20975;-42
2022/10/24 12:38:27;;;;;;;5.30;2.80;;;22.40;45.90;;;;;;5053374;28;20416;-42
2022/10/24 12:41:10;;;;;;;5.40;2.20;;;22.50;45.90;;;;;;5053720;28;20423;-42
2022/10/24 12:43:44;;;;;;;4.50;2.57;;;22.40;45.90;;;;;;5053283;28;20435;-41
2022/10/24 12:46:17;;;;;;;6.20;2.50;;;22.40;45.90;;;;;;5052698;28;20490;-42
2022/10/24 12:49:04;;;;;;;5.30;3.90;;;22.40;46.00;;;;;;5053874;28;20408;-42
2022/10/24 12:51:35;;;;;;;7.50;3.10;;;22.40;45.80;;;;;;5052409;28;20695;-42
2022/10/24 12:54:11;;;;;;;4.83;2.97;;;22.40;46.10;;;;;;5053198;28;20999;-42
2022/10/24 12:56:52;;;;;;;3.95;2.80;;;22.40;46.20;;;;;;5052469;28;20911;-42